PWSweather.com
Personal Weather Stations
Station Observations
GEELONGWX1
Bell Post Hill, GeelongAU

Bell Post HillGeelongAU

Lat: -38.101, Lon: 144.326

Elevation: 204

Station Type: Davis Vantage Pro2

http://www.geelongweather.com

High Low Average
Temperature 54.8°F12.7°C 42.9°F6.1°C 48.6°F9.2°C
Dew Point 47.9°F8.8°C 37.5°F3.1°C 43.2°F6.2°C
Winds 6.9 mph 11.1 kmh Calm Calm 4.0 mph S6.4 kmh S
Wind Gusts 11.5 mph18.5 kmh 1.2 mph1.9 kmh 6.0 mph9.7 kmh
Humidity 91% 66% 82%
Pressure 30.44 in1030.8 mb 30.29 in1025.7 mb -
Precipitation 0.00 in0.0 mm - -
Hour Temp Dew Point Humidity Winds Wind Gusts Pressure Precip Precip Rate Daily Precip Total
12:00 AM 47.3°F8.5°C 44.3°F6.8°C 89% 4.6 mph SSE7.4 kmh SSE 5.8 mph9.3 kmh 30.29 in1025.7 mb - 0.00 in0.0 mm 0.00 in0.0 mm
12:10 AM 47.2°F8.4°C 44.4°F6.9°C 90% 4.6 mph S7.4 kmh S 5.8 mph9.3 kmh 30.29 in1025.7 mb - 0.00 in0.0 mm 0.00 in0.0 mm
12:20 AM 47.1°F8.4°C 44.3°F6.8°C 90% 5.8 mph S9.3 kmh S 6.9 mph11.1 kmh 30.29 in1025.7 mb - 0.00 in0.0 mm 0.00 in0.0 mm
12:30 AM 47.0°F8.3°C 44.2°F6.8°C 90% 2.3 mph S3.7 kmh S 4.6 mph7.4 kmh 30.29 in1025.7 mb - 0.00 in0.0 mm 0.00 in0.0 mm
12:40 AM 46.9°F8.3°C 44.1°F6.7°C 90% 4.6 mph S7.4 kmh S 8.1 mph13.0 kmh 30.29 in1025.7 mb - 0.00 in0.0 mm 0.00 in0.0 mm
12:50 AM 46.7°F8.2°C 44.0°F6.7°C 90% 4.6 mph S7.4 kmh S 4.6 mph7.4 kmh 30.29 in1025.7 mb - 0.00 in0.0 mm 0.00 in0.0 mm
01:00 AM 46.7°F8.2°C 43.9°F6.6°C 90% 3.5 mph S5.6 kmh S 4.6 mph7.4 kmh 30.29 in1025.7 mb - 0.00 in0.0 mm 0.00 in0.0 mm
01:10 AM 46.6°F8.1°C 43.8°F6.6°C 90% 3.5 mph S5.6 kmh S 4.6 mph7.4 kmh 30.29 in1025.7 mb - 0.00 in0.0 mm 0.00 in0.0 mm
01:20 AM 46.6°F8.1°C 43.8°F6.6°C 90% 4.6 mph S7.4 kmh S 5.8 mph9.3 kmh 30.29 in1025.7 mb - 0.00 in0.0 mm 0.00 in0.0 mm
01:30 AM 46.7°F8.2°C 43.9°F6.6°C 90% 4.6 mph SSE7.4 kmh SSE 6.9 mph11.1 kmh 30.30 in1026.1 mb - 0.00 in0.0 mm 0.00 in0.0 mm
01:40 AM 46.8°F8.2°C 44.0°F6.7°C 90% 4.6 mph S7.4 kmh S 5.8 mph9.3 kmh 30.30 in1026.1 mb - 0.00 in0.0 mm 0.00 in0.0 mm
01:50 AM 46.8°F8.2°C 44.0°F6.7°C 90% 4.6 mph S7.4 kmh S 5.8 mph9.3 kmh 30.31 in1026.4 mb - 0.00 in0.0 mm 0.00 in0.0 mm
02:00 AM 46.8°F8.2°C 44.0°F6.7°C 90% 4.6 mph S7.4 kmh S 5.8 mph9.3 kmh 30.31 in1026.4 mb - 0.00 in0.0 mm 0.00 in0.0 mm
02:10 AM 46.8°F8.2°C 44.0°F6.7°C 90% 5.8 mph S9.3 kmh S 6.9 mph11.1 kmh 30.31 in1026.4 mb - 0.00 in0.0 mm 0.00 in0.0 mm
02:20 AM 46.8°F8.2°C 44.0°F6.7°C 90% 4.6 mph S7.4 kmh S 6.9 mph11.1 kmh 30.31 in1026.4 mb - 0.00 in0.0 mm 0.00 in0.0 mm
02:30 AM 46.8°F8.2°C 44.0°F6.7°C 90% 4.6 mph S7.4 kmh S 5.8 mph9.3 kmh 30.31 in1026.4 mb - 0.00 in0.0 mm 0.00 in0.0 mm
02:40 AM 46.9°F8.3°C 44.1°F6.7°C 90% 3.5 mph SSW5.6 kmh SSW 8.1 mph13.0 kmh 30.31 in1026.4 mb - 0.00 in0.0 mm 0.00 in0.0 mm
02:50 AM 46.9°F8.3°C 44.1°F6.7°C 90% 3.5 mph S5.6 kmh S 3.5 mph5.6 kmh 30.31 in1026.4 mb - 0.00 in0.0 mm 0.00 in0.0 mm
03:00 AM 46.9°F8.3°C 44.1°F6.7°C 90% 3.5 mph SSE5.6 kmh SSE 5.8 mph9.3 kmh 30.31 in1026.4 mb - 0.00 in0.0 mm 0.00 in0.0 mm
03:10 AM 47.1°F8.4°C 44.3°F6.8°C 90% 4.6 mph SE7.4 kmh SE 6.9 mph11.1 kmh 30.31 in1026.4 mb - 0.00 in0.0 mm 0.00 in0.0 mm
03:20 AM 47.3°F8.5°C 44.5°F6.9°C 90% 4.6 mph SE7.4 kmh SE 8.1 mph13.0 kmh 30.32 in1026.8 mb - 0.00 in0.0 mm 0.00 in0.0 mm
03:30 AM 47.6°F8.7°C 44.8°F7.1°C 90% 3.5 mph SE5.6 kmh SE 8.1 mph13.0 kmh 30.32 in1026.8 mb - 0.00 in0.0 mm 0.00 in0.0 mm
03:40 AM 47.8°F8.8°C 44.7°F7.1°C 89% 5.8 mph S9.3 kmh S 8.1 mph13.0 kmh 30.32 in1026.8 mb - 0.00 in0.0 mm 0.00 in0.0 mm
03:50 AM 47.8°F8.8°C 44.7°F7.1°C 89% 3.5 mph S5.6 kmh S 5.8 mph9.3 kmh 30.32 in1026.8 mb - 0.00 in0.0 mm 0.00 in0.0 mm
04:00 AM 47.9°F8.8°C 44.8°F7.1°C 89% 3.5 mph S5.6 kmh S 4.6 mph7.4 kmh 30.32 in1026.8 mb - 0.00 in0.0 mm 0.00 in0.0 mm
04:10 AM 47.8°F8.8°C 44.7°F7.1°C 89% 5.8 mph S9.3 kmh S 11.5 mph18.5 kmh 30.32 in1026.8 mb - 0.00 in0.0 mm 0.00 in0.0 mm
04:20 AM 47.8°F8.8°C 44.7°F7.1°C 89% 5.8 mph S9.3 kmh S 6.9 mph11.1 kmh 30.32 in1026.8 mb - 0.00 in0.0 mm 0.00 in0.0 mm
04:30 AM 47.7°F8.7°C 44.6°F7.0°C 89% 6.9 mph S11.1 kmh S 8.1 mph13.0 kmh 30.33 in1027.1 mb - 0.00 in0.0 mm 0.00 in0.0 mm
04:40 AM 47.7°F8.7°C 44.6°F7.0°C 89% 3.5 mph SSW5.6 kmh SSW 6.9 mph11.1 kmh 30.33 in1027.1 mb - 0.00 in0.0 mm 0.00 in0.0 mm
04:50 AM 47.6°F8.7°C 44.5°F6.9°C 89% 4.6 mph S7.4 kmh S 6.9 mph11.1 kmh 30.33 in1027.1 mb - 0.00 in0.0 mm 0.00 in0.0 mm
05:00 AM 47.5°F8.6°C 44.4°F6.9°C 89% 4.6 mph S7.4 kmh S 6.9 mph11.1 kmh 30.33 in1027.1 mb - 0.00 in0.0 mm 0.00 in0.0 mm
05:10 AM 47.4°F8.6°C 44.3°F6.8°C 89% 4.6 mph S7.4 kmh S 8.1 mph13.0 kmh 30.33 in1027.1 mb - 0.00 in0.0 mm 0.00 in0.0 mm
05:20 AM 47.4°F8.6°C 44.3°F6.8°C 89% 5.8 mph S9.3 kmh S 6.9 mph11.1 kmh 30.33 in1027.1 mb - 0.00 in0.0 mm 0.00 in0.0 mm
05:30 AM 47.3°F8.5°C 44.2°F6.8°C 89% 3.5 mph S5.6 kmh S 6.9 mph11.1 kmh 30.34 in1027.4 mb - 0.00 in0.0 mm 0.00 in0.0 mm
05:40 AM 47.2°F8.4°C 44.1°F6.7°C 89% 4.6 mph S7.4 kmh S 6.9 mph11.1 kmh 30.33 in1027.1 mb - 0.00 in0.0 mm 0.00 in0.0 mm
05:50 AM 47.1°F8.4°C 44.3°F6.8°C 90% 4.6 mph S7.4 kmh S 4.6 mph7.4 kmh 30.34 in1027.4 mb - 0.00 in0.0 mm 0.00 in0.0 mm
06:00 AM 47.0°F8.3°C 44.2°F6.8°C 90% 4.6 mph S7.4 kmh S 4.6 mph7.4 kmh 30.34 in1027.4 mb - 0.00 in0.0 mm 0.00 in0.0 mm
06:10 AM 47.0°F8.3°C 44.2°F6.8°C 90% 5.8 mph S9.3 kmh S 6.9 mph11.1 kmh 30.34 in1027.4 mb - 0.00 in0.0 mm 0.00 in0.0 mm
06:20 AM 46.9°F8.3°C 44.1°F6.7°C 90% 3.5 mph S5.6 kmh S 4.6 mph7.4 kmh 30.35 in1027.8 mb - 0.00 in0.0 mm 0.00 in0.0 mm
06:30 AM 46.9°F8.3°C 44.1°F6.7°C 90% 4.6 mph S7.4 kmh S 6.9 mph11.1 kmh 30.35 in1027.8 mb - 0.00 in0.0 mm 0.00 in0.0 mm
06:40 AM 46.9°F8.3°C 44.1°F6.7°C 90% 3.5 mph S5.6 kmh S 8.1 mph13.0 kmh 30.35 in1027.8 mb - 0.00 in0.0 mm 0.00 in0.0 mm
06:50 AM 46.9°F8.3°C 44.1°F6.7°C 90% 4.6 mph S7.4 kmh S 5.8 mph9.3 kmh 30.36 in1028.1 mb - 0.00 in0.0 mm 0.00 in0.0 mm
07:00 AM 46.9°F8.3°C 44.1°F6.7°C 90% 3.5 mph SSW5.6 kmh SSW 4.6 mph7.4 kmh 30.36 in1028.1 mb - 0.00 in0.0 mm 0.00 in0.0 mm
07:10 AM 47.0°F8.3°C 44.2°F6.8°C 90% 3.5 mph S5.6 kmh S 6.9 mph11.1 kmh 30.36 in1028.1 mb - 0.00 in0.0 mm 0.00 in0.0 mm
07:20 AM 46.9°F8.3°C 44.1°F6.7°C 90% 3.5 mph SSW5.6 kmh SSW 4.6 mph7.4 kmh 30.36 in1028.1 mb - 0.00 in0.0 mm 0.00 in0.0 mm
07:30 AM 46.8°F8.2°C 44.0°F6.7°C 90% 3.5 mph SSW5.6 kmh SSW 4.6 mph7.4 kmh 30.37 in1028.4 mb - 0.00 in0.0 mm 0.00 in0.0 mm
07:40 AM 46.7°F8.2°C 44.0°F6.7°C 90% 3.5 mph SSW5.6 kmh SSW 5.8 mph9.3 kmh 30.37 in1028.4 mb - 0.00 in0.0 mm 0.00 in0.0 mm
07:50 AM 46.7°F8.2°C 43.9°F6.6°C 90% 3.5 mph S5.6 kmh S 6.9 mph11.1 kmh 30.38 in1028.8 mb - 0.00 in0.0 mm 0.00 in0.0 mm
08:00 AM 46.7°F8.2°C 43.9°F6.6°C 90% 4.6 mph SSE7.4 kmh SSE 5.8 mph9.3 kmh 30.38 in1028.8 mb - 0.00 in0.0 mm 0.00 in0.0 mm
08:10 AM 46.7°F8.2°C 43.9°F6.6°C 90% 4.6 mph S7.4 kmh S 8.1 mph13.0 kmh 30.38 in1028.8 mb - 0.00 in0.0 mm 0.00 in0.0 mm
08:20 AM 46.7°F8.2°C 43.9°F6.6°C 90% 4.6 mph S7.4 kmh S 4.6 mph7.4 kmh 30.38 in1028.8 mb - 0.00 in0.0 mm 0.00 in0.0 mm
08:30 AM 46.9°F8.3°C 44.1°F6.7°C 90% 4.6 mph S7.4 kmh S 8.1 mph13.0 kmh 30.39 in1029.1 mb - 0.00 in0.0 mm 0.00 in0.0 mm
08:40 AM 46.9°F8.3°C 44.1°F6.7°C 90% 5.8 mph S9.3 kmh S 5.8 mph9.3 kmh 30.39 in1029.1 mb - 0.00 in0.0 mm 0.00 in0.0 mm
08:50 AM 47.0°F8.3°C 44.2°F6.8°C 90% 5.8 mph SSW9.3 kmh SSW 6.9 mph11.1 kmh 30.40 in1029.5 mb - 0.00 in0.0 mm 0.00 in0.0 mm
09:00 AM 47.1°F8.4°C 44.3°F6.8°C 90% 4.6 mph SSW7.4 kmh SSW 6.9 mph11.1 kmh 30.39 in1029.1 mb - 0.00 in0.0 mm 0.00 in0.0 mm
09:10 AM 47.4°F8.6°C 44.9°F7.2°C 91% 5.8 mph S9.3 kmh S 5.8 mph9.3 kmh 30.39 in1029.1 mb - 0.00 in0.0 mm 0.00 in0.0 mm
09:20 AM 47.7°F8.7°C 45.2°F7.3°C 91% 5.8 mph S9.3 kmh S 8.1 mph13.0 kmh 30.40 in1029.5 mb - 0.00 in0.0 mm 0.00 in0.0 mm
09:30 AM 47.9°F8.8°C 45.4°F7.4°C 91% 4.6 mph S7.4 kmh S 6.9 mph11.1 kmh 30.40 in1029.5 mb - 0.00 in0.0 mm 0.00 in0.0 mm
09:40 AM 48.2°F9.0°C 45.7°F7.6°C 91% 3.5 mph S5.6 kmh S 6.9 mph11.1 kmh 30.41 in1029.8 mb - 0.00 in0.0 mm 0.00 in0.0 mm
09:50 AM 48.6°F9.2°C 46.1°F7.8°C 91% 6.9 mph S11.1 kmh S 8.1 mph13.0 kmh 30.41 in1029.8 mb - 0.00 in0.0 mm 0.00 in0.0 mm
10:00 AM 48.9°F9.4°C 46.1°F7.8°C 90% 5.8 mph S9.3 kmh S 6.9 mph11.1 kmh 30.41 in1029.8 mb - 0.00 in0.0 mm 0.00 in0.0 mm
10:10 AM 49.2°F9.6°C 46.4°F8.0°C 90% 4.6 mph S7.4 kmh S 10.4 mph16.7 kmh 30.41 in1029.8 mb - 0.00 in0.0 mm 0.00 in0.0 mm
10:20 AM 49.5°F9.7°C 46.7°F8.2°C 90% 3.5 mph S5.6 kmh S 5.8 mph9.3 kmh 30.42 in1030.1 mb - 0.00 in0.0 mm 0.00 in0.0 mm
10:30 AM 49.7°F9.8°C 46.9°F8.3°C 90% 3.5 mph S5.6 kmh S 4.6 mph7.4 kmh 30.42 in1030.1 mb - 0.00 in0.0 mm 0.00 in0.0 mm
10:40 AM 50.0°F10.0°C 46.9°F8.3°C 89% 3.5 mph S5.6 kmh S 4.6 mph7.4 kmh 30.41 in1029.8 mb - 0.00 in0.0 mm 0.00 in0.0 mm
10:50 AM 50.9°F10.5°C 47.8°F8.8°C 89% 4.6 mph SE7.4 kmh SE 11.5 mph18.5 kmh 30.41 in1029.8 mb - 0.00 in0.0 mm 0.00 in0.0 mm
11:00 AM 51.5°F10.8°C 47.8°F8.8°C 87% 6.9 mph SSW11.1 kmh SSW 10.4 mph16.7 kmh 30.42 in1030.1 mb - 0.00 in0.0 mm 0.00 in0.0 mm
11:10 AM 52.0°F11.1°C 47.9°F8.8°C 86% 5.8 mph SW9.3 kmh SW 11.5 mph18.5 kmh 30.41 in1029.8 mb - 0.00 in0.0 mm 0.00 in0.0 mm
11:20 AM 52.3°F11.3°C 47.6°F8.7°C 84% 5.8 mph SSW9.3 kmh SSW 10.4 mph16.7 kmh 30.41 in1029.8 mb - 0.00 in0.0 mm 0.00 in0.0 mm
11:30 AM 52.6°F11.4°C 47.3°F8.5°C 82% 5.8 mph S9.3 kmh S 5.8 mph9.3 kmh 30.41 in1029.8 mb - 0.00 in0.0 mm 0.00 in0.0 mm
11:40 AM 52.8°F11.6°C 47.5°F8.6°C 82% 6.9 mph SSW11.1 kmh SSW 11.5 mph18.5 kmh 30.41 in1029.8 mb - 0.00 in0.0 mm 0.00 in0.0 mm
11:50 AM 53.2°F11.8°C 47.6°F8.7°C 81% 6.9 mph SSW11.1 kmh SSW 8.1 mph13.0 kmh 30.40 in1029.5 mb - 0.00 in0.0 mm 0.00 in0.0 mm
12:00 PM 54.0°F12.2°C 47.6°F8.7°C 79% 6.9 mph SSW11.1 kmh SSW 9.2 mph14.8 kmh 30.40 in1029.5 mb - 0.00 in0.0 mm 0.00 in0.0 mm
12:10 PM 54.2°F12.3°C 47.5°F8.6°C 78% 5.8 mph S9.3 kmh S 10.4 mph16.7 kmh 30.40 in1029.5 mb - 0.00 in0.0 mm 0.00 in0.0 mm
12:20 PM 54.1°F12.3°C 47.0°F8.3°C 77% 4.6 mph S7.4 kmh S 8.1 mph13.0 kmh 30.40 in1029.5 mb - 0.00 in0.0 mm 0.00 in0.0 mm
12:30 PM 54.2°F12.3°C 47.1°F8.4°C 77% 3.5 mph S5.6 kmh S 4.6 mph7.4 kmh 30.40 in1029.5 mb - 0.00 in0.0 mm 0.00 in0.0 mm
12:40 PM 54.2°F12.3°C 47.1°F8.4°C 77% 5.8 mph S9.3 kmh S 10.4 mph16.7 kmh 30.40 in1029.5 mb - 0.00 in0.0 mm 0.00 in0.0 mm
12:50 PM 54.1°F12.3°C 47.0°F8.3°C 77% 4.6 mph S7.4 kmh S 4.6 mph7.4 kmh 30.39 in1029.1 mb - 0.00 in0.0 mm 0.00 in0.0 mm
01:00 PM 54.2°F12.3°C 47.1°F8.4°C 77% 4.6 mph SSE7.4 kmh SSE 6.9 mph11.1 kmh 30.39 in1029.1 mb - 0.00 in0.0 mm 0.00 in0.0 mm
01:10 PM 54.3°F12.4°C 47.2°F8.4°C 77% 3.5 mph S5.6 kmh S 3.5 mph5.6 kmh 30.39 in1029.1 mb - 0.00 in0.0 mm 0.00 in0.0 mm
01:20 PM 54.6°F12.6°C 47.9°F8.8°C 78% 4.6 mph SSW7.4 kmh SSW 6.9 mph11.1 kmh 30.39 in1029.1 mb - 0.00 in0.0 mm 0.00 in0.0 mm
01:30 PM 54.7°F12.6°C 47.6°F8.7°C 77% 4.6 mph SSE7.4 kmh SSE 4.6 mph7.4 kmh 30.39 in1029.1 mb - 0.00 in0.0 mm 0.00 in0.0 mm
01:40 PM 54.7°F12.6°C 46.9°F8.3°C 75% 4.6 mph SSE7.4 kmh SSE 5.8 mph9.3 kmh 30.39 in1029.1 mb - 0.00 in0.0 mm 0.00 in0.0 mm
01:50 PM 54.5°F12.5°C 45.3°F7.4°C 71% 4.6 mph SE7.4 kmh SE 6.9 mph11.1 kmh 30.39 in1029.1 mb - 0.00 in0.0 mm 0.00 in0.0 mm
02:00 PM 54.5°F12.5°C 45.3°F7.4°C 71% 5.8 mph SE9.3 kmh SE 6.9 mph11.1 kmh 30.38 in1028.8 mb - 0.00 in0.0 mm 0.00 in0.0 mm
02:10 PM 54.5°F12.5°C 45.7°F7.6°C 72% 4.6 mph S7.4 kmh S 5.8 mph9.3 kmh 30.38 in1028.8 mb - 0.00 in0.0 mm 0.00 in0.0 mm
02:20 PM 54.7°F12.6°C 46.2°F7.9°C 73% 3.5 mph S5.6 kmh S 3.5 mph5.6 kmh 30.38 in1028.8 mb - 0.00 in0.0 mm 0.00 in0.0 mm
02:30 PM 54.8°F12.7°C 46.6°F8.1°C 74% 3.5 mph S5.6 kmh S 3.5 mph5.6 kmh 30.38 in1028.8 mb - 0.00 in0.0 mm 0.00 in0.0 mm
02:40 PM 54.7°F12.6°C 46.6°F8.1°C 74% 3.5 mph S5.6 kmh S 5.8 mph9.3 kmh 30.38 in1028.8 mb - 0.00 in0.0 mm 0.00 in0.0 mm
02:50 PM 54.7°F12.6°C 45.5°F7.5°C 71% 4.6 mph SSE7.4 kmh SSE 11.5 mph18.5 kmh 30.38 in1028.8 mb - 0.00 in0.0 mm 0.00 in0.0 mm
03:00 PM 54.8°F12.7°C 44.4°F6.9°C 68% 3.5 mph SE5.6 kmh SE 5.8 mph9.3 kmh 30.39 in1029.1 mb - 0.00 in0.0 mm 0.00 in0.0 mm
03:10 PM 54.5°F12.5°C 44.2°F6.8°C 68% 4.6 mph SE7.4 kmh SE 11.5 mph18.5 kmh 30.39 in1029.1 mb - 0.00 in0.0 mm 0.00 in0.0 mm
03:20 PM 54.3°F12.4°C 44.0°F6.7°C 68% 6.9 mph SE11.1 kmh SE 10.4 mph16.7 kmh 30.39 in1029.1 mb - 0.00 in0.0 mm 0.00 in0.0 mm
03:30 PM 54.2°F12.3°C 43.9°F6.6°C 68% 5.8 mph SE9.3 kmh SE 9.2 mph14.8 kmh 30.39 in1029.1 mb - 0.00 in0.0 mm 0.00 in0.0 mm
03:40 PM 54.2°F12.3°C 43.5°F6.4°C 67% 3.5 mph SSE5.6 kmh SSE 3.5 mph5.6 kmh 30.39 in1029.1 mb - 0.00 in0.0 mm 0.00 in0.0 mm
03:50 PM 54.2°F12.3°C 43.5°F6.4°C 67% 2.3 mph E3.7 kmh E 4.6 mph7.4 kmh 30.40 in1029.5 mb - 0.00 in0.0 mm 0.00 in0.0 mm
04:00 PM 54.1°F12.3°C 43.4°F6.3°C 67% 5.8 mph SE9.3 kmh SE 9.2 mph14.8 kmh 30.40 in1029.5 mb - 0.00 in0.0 mm 0.00 in0.0 mm
04:10 PM 53.6°F12.0°C 42.5°F5.8°C 66% 4.6 mph SE7.4 kmh SE 4.6 mph7.4 kmh 30.40 in1029.5 mb - 0.00 in0.0 mm 0.00 in0.0 mm
04:20 PM 53.3°F11.8°C 42.6°F5.9°C 67% 4.6 mph SSE7.4 kmh SSE 5.8 mph9.3 kmh 30.40 in1029.5 mb - 0.00 in0.0 mm 0.00 in0.0 mm
04:30 PM 53.0°F11.7°C 42.3°F5.7°C 67% 2.3 mph ESE3.7 kmh ESE 3.5 mph5.6 kmh 30.41 in1029.8 mb - 0.00 in0.0 mm 0.00 in0.0 mm
04:40 PM 52.8°F11.6°C 42.5°F5.8°C 68% 4.6 mph SE7.4 kmh SE 4.6 mph7.4 kmh 30.41 in1029.8 mb - 0.00 in0.0 mm 0.00 in0.0 mm
04:50 PM 52.4°F11.3°C 42.5°F5.8°C 69% 3.5 mph SE5.6 kmh SE 3.5 mph5.6 kmh 30.41 in1029.8 mb - 0.00 in0.0 mm 0.00 in0.0 mm
05:00 PM 52.0°F11.1°C 42.1°F5.6°C 69% 2.3 mph SSE3.7 kmh SSE 3.5 mph5.6 kmh 30.41 in1029.8 mb - 0.00 in0.0 mm 0.00 in0.0 mm
05:10 PM 51.6°F10.9°C 41.8°F5.4°C 69% 1.2 mph SSE1.9 kmh SSE 3.5 mph5.6 kmh 30.41 in1029.8 mb - 0.00 in0.0 mm 0.00 in0.0 mm
05:20 PM 51.2°F10.7°C 41.4°F5.2°C 69% 1.2 mph SSE1.9 kmh SSE 2.3 mph3.7 kmh 30.41 in1029.8 mb - 0.00 in0.0 mm 0.00 in0.0 mm
05:30 PM 50.8°F10.4°C 41.4°F5.2°C 70% 2.3 mph SSE3.7 kmh SSE 3.5 mph5.6 kmh 30.41 in1029.8 mb - 0.00 in0.0 mm 0.00 in0.0 mm
05:40 PM 50.4°F10.2°C 41.0°F5.0°C 70% 1.2 mph SSE1.9 kmh SSE 2.3 mph3.7 kmh 30.41 in1029.8 mb - 0.00 in0.0 mm 0.00 in0.0 mm
05:50 PM 49.9°F9.9°C 40.9°F4.9°C 71% 2.3 mph SSE3.7 kmh SSE 3.5 mph5.6 kmh 30.41 in1029.8 mb - 0.00 in0.0 mm 0.00 in0.0 mm
06:00 PM 49.4°F9.7°C 40.7°F4.8°C 72% 1.2 mph SSE1.9 kmh SSE 1.2 mph1.9 kmh 30.41 in1029.8 mb - 0.00 in0.0 mm 0.00 in0.0 mm
06:10 PM 48.9°F9.4°C 40.3°F4.6°C 72% Calm Calm 1.2 mph1.9 kmh 30.41 in1029.8 mb - 0.00 in0.0 mm 0.00 in0.0 mm
06:20 PM 48.4°F9.1°C 39.8°F4.3°C 72% 1.2 mph S1.9 kmh S 2.3 mph3.7 kmh 30.41 in1029.8 mb - 0.00 in0.0 mm 0.00 in0.0 mm
06:30 PM 48.0°F8.9°C 39.4°F4.1°C 72% 1.2 mph S1.9 kmh S 3.5 mph5.6 kmh 30.42 in1030.1 mb - 0.00 in0.0 mm 0.00 in0.0 mm
06:40 PM 47.7°F8.7°C 39.5°F4.2°C 73% 2.3 mph S3.7 kmh S 3.5 mph5.6 kmh 30.42 in1030.1 mb - 0.00 in0.0 mm 0.00 in0.0 mm
06:50 PM 47.5°F8.6°C 39.2°F4.0°C 73% 1.2 mph S1.9 kmh S 3.5 mph5.6 kmh 30.42 in1030.1 mb - 0.00 in0.0 mm 0.00 in0.0 mm
07:00 PM 47.2°F8.4°C 39.3°F4.1°C 74% 2.3 mph S3.7 kmh S 3.5 mph5.6 kmh 30.42 in1030.1 mb - 0.00 in0.0 mm 0.00 in0.0 mm
07:10 PM 46.9°F8.3°C 39.1°F3.9°C 74% 1.2 mph S1.9 kmh S 3.5 mph5.6 kmh 30.43 in1030.5 mb - 0.00 in0.0 mm 0.00 in0.0 mm
07:20 PM 46.6°F8.1°C 38.8°F3.8°C 74% 2.3 mph S3.7 kmh S 2.3 mph3.7 kmh 30.43 in1030.5 mb - 0.00 in0.0 mm 0.00 in0.0 mm
07:30 PM 46.3°F7.9°C 38.5°F3.6°C 74% 1.2 mph S1.9 kmh S 2.3 mph3.7 kmh 30.43 in1030.5 mb - 0.00 in0.0 mm 0.00 in0.0 mm
07:40 PM 46.1°F7.8°C 38.3°F3.5°C 74% 2.3 mph S3.7 kmh S 3.5 mph5.6 kmh 30.43 in1030.5 mb - 0.00 in0.0 mm 0.00 in0.0 mm
07:50 PM 45.7°F7.6°C 38.2°F3.4°C 75% 3.5 mph S5.6 kmh S 3.5 mph5.6 kmh 30.43 in1030.5 mb - 0.00 in0.0 mm 0.00 in0.0 mm
08:00 PM 45.4°F7.4°C 37.9°F3.3°C 75% 2.3 mph S3.7 kmh S 3.5 mph5.6 kmh 30.43 in1030.5 mb - 0.00 in0.0 mm 0.00 in0.0 mm
08:10 PM 45.2°F7.3°C 38.1°F3.4°C 76% 3.5 mph S5.6 kmh S 3.5 mph5.6 kmh 30.43 in1030.5 mb - 0.00 in0.0 mm 0.00 in0.0 mm
08:20 PM 45.1°F7.3°C 38.0°F3.3°C 76% 2.3 mph S3.7 kmh S 3.5 mph5.6 kmh 30.44 in1030.8 mb - 0.00 in0.0 mm 0.00 in0.0 mm
08:30 PM 44.9°F7.2°C 38.1°F3.4°C 77% 3.5 mph S5.6 kmh S 4.6 mph7.4 kmh 30.44 in1030.8 mb - 0.00 in0.0 mm 0.00 in0.0 mm
08:40 PM 44.7°F7.1°C 37.9°F3.3°C 77% 2.3 mph S3.7 kmh S 3.5 mph5.6 kmh 30.44 in1030.8 mb - 0.00 in0.0 mm 0.00 in0.0 mm
08:50 PM 44.6°F7.0°C 38.2°F3.4°C 78% 2.3 mph S3.7 kmh S 3.5 mph5.6 kmh 30.44 in1030.8 mb - 0.00 in0.0 mm 0.00 in0.0 mm
09:00 PM 44.4°F6.9°C 38.0°F3.3°C 78% 2.3 mph S3.7 kmh S 3.5 mph5.6 kmh 30.44 in1030.8 mb - 0.00 in0.0 mm 0.00 in0.0 mm
09:10 PM 44.2°F6.8°C 37.8°F3.2°C 78% 2.3 mph S3.7 kmh S 3.5 mph5.6 kmh 30.44 in1030.8 mb - 0.00 in0.0 mm 0.00 in0.0 mm
09:20 PM 43.9°F6.6°C 37.5°F3.1°C 78% 1.2 mph S1.9 kmh S 2.3 mph3.7 kmh 30.44 in1030.8 mb - 0.00 in0.0 mm 0.00 in0.0 mm
09:30 PM 43.8°F6.6°C 37.7°F3.2°C 79% 2.3 mph S3.7 kmh S 3.5 mph5.6 kmh 30.44 in1030.8 mb - 0.00 in0.0 mm 0.00 in0.0 mm
09:40 PM 43.6°F6.4°C 37.5°F3.1°C 79% 2.3 mph S3.7 kmh S 3.5 mph5.6 kmh 30.43 in1030.5 mb - 0.00 in0.0 mm 0.00 in0.0 mm
09:50 PM 43.5°F6.4°C 37.7°F3.2°C 80% 1.2 mph S1.9 kmh S 2.3 mph3.7 kmh 30.44 in1030.8 mb - 0.00 in0.0 mm 0.00 in0.0 mm
10:00 PM 43.3°F6.3°C 37.5°F3.1°C 80% 3.5 mph S5.6 kmh S 3.5 mph5.6 kmh 30.44 in1030.8 mb - 0.00 in0.0 mm 0.00 in0.0 mm
10:10 PM 43.2°F6.2°C 37.8°F3.2°C 81% 3.5 mph S5.6 kmh S 4.6 mph7.4 kmh 30.43 in1030.5 mb - 0.00 in0.0 mm 0.00 in0.0 mm
10:20 PM 43.0°F6.1°C 37.6°F3.1°C 81% 2.3 mph S3.7 kmh S 3.5 mph5.6 kmh 30.43 in1030.5 mb - 0.00 in0.0 mm 0.00 in0.0 mm
10:30 PM 42.9°F6.1°C 37.8°F3.2°C 82% 2.3 mph S3.7 kmh S 3.5 mph5.6 kmh 30.44 in1030.8 mb - 0.00 in0.0 mm 0.00 in0.0 mm
10:40 PM 43.2°F6.2°C 38.7°F3.7°C 84% 3.5 mph SW5.6 kmh SW 3.5 mph5.6 kmh 30.44 in1030.8 mb - 0.00 in0.0 mm 0.00 in0.0 mm
10:50 PM 43.4°F6.3°C 39.2°F4.0°C 85% 2.3 mph SW3.7 kmh SW 3.5 mph5.6 kmh 30.44 in1030.8 mb - 0.00 in0.0 mm 0.00 in0.0 mm
11:00 PM 43.4°F6.3°C 39.2°F4.0°C 85% 1.2 mph SW1.9 kmh SW 3.5 mph5.6 kmh 30.44 in1030.8 mb - 0.00 in0.0 mm 0.00 in0.0 mm
11:10 PM 43.4°F6.3°C 39.2°F4.0°C 85% 1.2 mph SW1.9 kmh SW 3.5 mph5.6 kmh 30.44 in1030.8 mb - 0.00 in0.0 mm 0.00 in0.0 mm
11:20 PM 43.3°F6.3°C 39.4°F4.1°C 86% 2.3 mph S3.7 kmh S 3.5 mph5.6 kmh 30.44 in1030.8 mb - 0.00 in0.0 mm 0.00 in0.0 mm
11:30 PM 43.4°F6.3°C 39.5°F4.2°C 86% 2.3 mph S3.7 kmh S 3.5 mph5.6 kmh 30.44 in1030.8 mb - 0.00 in0.0 mm 0.00 in0.0 mm
11:40 PM 43.5°F6.4°C 39.6°F4.2°C 86% 3.5 mph S5.6 kmh S 3.5 mph5.6 kmh 30.44 in1030.8 mb - 0.00 in0.0 mm 0.00 in0.0 mm
11:50 PM 43.6°F6.4°C 40.0°F4.4°C 87% 1.2 mph SSW1.9 kmh SSW 2.3 mph3.7 kmh 30.44 in1030.8 mb - 0.00 in0.0 mm 0.00 in0.0 mm